Oriskany Falls, NY

10:31 PM EDT on April 26, 2015 (GMT -0400)
Deansboro, NY | | Change Station
CLOSE
Current Station
Personal Weather Station
Location: Deansboro, NY
Elevation: 1158 ft
Nearby Weather Stations

Elev 1158 ft 43.01 °N, 75.44 °W | Updated 9 minutes ago

Overcast
Overcast
41.0 °F
Feels Like 41 °F
N
3.0
Wind Variable Wind from West
Gusts 13.0 mph

Today
High -- | Low -- °F
--% Chance of Precip.
Yesterday
High -- | Low -- °F
Precip. -- in
6:03 AM 7:56 PM
First Quarter, 60% visible
Pressure 29.78 in
Visibility 10.0 miles
Clouds Overcast 5500 ft
Windchill 41 °F
Dew Point 36 °F
Humidity 81%
Rainfall 0.00 in
Snow Depth Not available.
UV 0.0 out of 12
Pollen 8.30 out of 12
Air Quality Not available.
Flu Activity Widespread
METAR KRME 270153Z AUTO 27004KT 10SM OVC055 06/M01 A2977 RMK AO2 SLP082 T00561006

More Conditions Fewer Conditions

Pressure 29.78 in
Visibility 10.0 miles
Clouds Overcast 5500 ft
Windchill 41 °F
Dew Point 36 °F
Humidity 81%
Rainfall 0.00 in
Snow Depth Not available.
UV 0.0 out of 12
Pollen 8.30 out of 12
Air Quality Not available.
Flu Activity Widespread
METAR KRME 270153Z AUTO 27004KT 10SM OVC055 06/M01 A2977 RMK AO2 SLP082 T00561006

More Conditions Fewer Conditions

The full scope of the disaster following a powerful 7.8-magnitude earthquake in Nepal may not come into view for days, but global charities are already sending emergency aid. Click to see how you can help.

10-Day Weather Forecast

Almanac

Astronomy

Apr. 26, 2015 Rise Set
Actual Time
Civil Twilight
Nautical Twilight
Astronomical Twilight
Moon
Length of Visible Light
Length of Day
Tomorrow will be .
, % of the Moon is Illuminated

Today's Extremes

State Highs State Lows

Community

WunderPhotos

Upload Photos

1,817,204 photos uploaded!

WunderBlogs® & News

Nearby

Air Quality

  Air Quality AQ Index Pollutant
Not available.

Snow Depth

Station Depth Elevation

Earthquake Activity

City Distance Mag. Time & Date
Minimum magnitude displayed is 2.5.

Coastal Water Temperatures

Place Temperature

Stations

Nearby Weather Stations

Station Location Temp. Windchill Dew Point Humidity Wind Precip. Elev Updated Type